createdAt,value
2023-03-15T00:00:54.016Z,2.40
2023-03-15T00:03:21.358Z,2.27
2023-03-15T00:05:49.691Z,2.70
2023-03-15T00:08:16.262Z,2.80
2023-03-15T00:10:44.373Z,2.80
2023-03-15T00:13:12.069Z,2.40
2023-03-15T00:15:49.605Z,2.90
2023-03-15T00:18:17.962Z,2.77
2023-03-15T00:20:45.483Z,2.90
2023-03-15T00:23:12.255Z,2.67
2023-03-15T00:25:39.535Z,2.63
2023-03-15T00:28:06.780Z,2.80
2023-03-15T00:30:33.496Z,2.30
2023-03-15T00:33:00.106Z,2.70
2023-03-15T00:35:26.842Z,2.40
2023-03-15T00:37:57.247Z,2.67
2023-03-15T00:40:24.785Z,2.33
2023-03-15T00:42:52.232Z,2.90
2023-03-15T00:45:20.865Z,2.40
2023-03-15T00:47:54.743Z,3.03
2023-03-15T00:50:23.240Z,2.50
2023-03-15T00:52:49.988Z,2.40
2023-03-15T00:55:19.187Z,2.47
2023-03-15T00:57:47.923Z,2.70
2023-03-15T01:00:20.601Z,2.90
2023-03-15T01:02:55.108Z,3.13
2023-03-15T01:05:22.522Z,2.80
2023-03-15T01:07:49.632Z,3.10
2023-03-15T01:10:17.484Z,2.97
2023-03-15T01:12:45.161Z,3.50
2023-03-15T01:15:16.036Z,3.40
2023-03-15T01:17:43.685Z,3.37
2023-03-15T01:20:13.495Z,3.53
2023-03-15T01:22:41.978Z,3.70
2023-03-15T01:25:09.421Z,3.30
2023-03-15T01:27:36.138Z,4.37
2023-03-15T01:30:03.121Z,3.90
2023-03-15T01:32:29.860Z,4.23
2023-03-15T01:34:57.131Z,4.50
2023-03-15T01:37:24.760Z,3.83
2023-03-15T01:39:51.653Z,4.20
2023-03-15T01:42:18.404Z,4.30
2023-03-15T01:45:02.316Z,4.73
2023-03-15T01:47:29.085Z,4.63
2023-03-15T01:50:11.519Z,4.80
2023-03-15T01:52:41.847Z,5.00
2023-03-15T01:55:20.825Z,5.03
2023-03-15T01:58:09.151Z,5.27
2023-03-15T02:00:41.179Z,5.03
2023-03-15T02:03:19.273Z,4.73
2023-03-15T02:05:54.745Z,5.30
2023-03-15T02:08:39.749Z,5.80
2023-03-15T02:11:06.633Z,5.67
2023-03-15T02:13:35.101Z,6.53
2023-03-15T02:16:07.078Z,5.77
2023-03-15T02:18:43.688Z,6.57
2023-03-15T02:21:38.228Z,6.50
2023-03-15T02:24:22.987Z,7.07
2023-03-15T02:26:54.432Z,6.90
2023-03-15T02:29:23.350Z,7.57
2023-03-15T02:31:50.010Z,8.47
2023-03-15T02:34:16.688Z,8.10
2023-03-15T02:36:43.291Z,8.43
2023-03-15T02:39:18.681Z,8.27
2023-03-15T02:41:52.275Z,7.80
2023-03-15T02:44:34.443Z,8.47
2023-03-15T02:47:05.765Z,7.97
2023-03-15T02:49:38.173Z,7.93
2023-03-15T02:52:06.154Z,8.40
2023-03-15T02:54:36.542Z,8.23
2023-03-15T02:57:03.413Z,8.43
2023-03-15T02:59:31.241Z,8.03
2023-03-15T03:02:05.410Z,7.80
2023-03-15T03:04:32.062Z,7.87
2023-03-15T03:06:58.875Z,8.50
2023-03-15T03:09:32.924Z,8.60
2023-03-15T03:11:59.634Z,8.80
2023-03-15T03:14:26.660Z,7.43
2023-03-15T03:16:53.326Z,7.87
2023-03-15T03:19:19.933Z,8.40
2023-03-15T03:21:46.513Z,8.17
2023-03-15T03:24:16.460Z,8.07
2023-03-15T03:26:46.161Z,7.60
2023-03-15T03:29:16.666Z,8.23
2023-03-15T03:31:45.352Z,7.20
2023-03-15T03:34:15.514Z,7.47
2023-03-15T03:36:43.304Z,7.53
2023-03-15T03:39:11.170Z,7.77
2023-03-15T03:41:37.858Z,7.03
2023-03-15T03:44:05.300Z,6.67
2023-03-15T03:46:32.268Z,6.83
2023-03-15T03:48:59.171Z,7.03
2023-03-15T03:51:25.829Z,7.17
2023-03-15T03:53:52.461Z,6.77
2023-03-15T03:56:19.161Z,6.60
2023-03-15T03:58:46.150Z,6.63
2023-03-15T04:01:22.132Z,6.60
2023-03-15T04:03:51.305Z,5.97
2023-03-15T04:06:20.176Z,6.40
2023-03-15T04:08:47.685Z,6.53
2023-03-15T04:11:29.573Z,6.17
2023-03-15T04:13:59.867Z,5.03
2023-03-15T04:16:27.155Z,5.57
2023-03-15T04:19:06.345Z,5.50
2023-03-15T04:21:34.750Z,6.17
2023-03-15T04:24:16.061Z,5.83
2023-03-15T04:27:01.772Z,5.30
2023-03-15T04:29:43.590Z,5.73
2023-03-15T04:32:24.066Z,5.53
2023-03-15T04:35:02.162Z,5.63
2023-03-15T04:37:44.894Z,5.90
2023-03-15T04:40:24.232Z,5.17
2023-03-15T04:42:57.266Z,5.33
2023-03-15T04:45:41.719Z,5.47
2023-03-15T04:48:27.133Z,5.17
2023-03-15T04:51:12.326Z,5.13
2023-03-15T04:53:45.306Z,5.20
2023-03-15T04:56:50.317Z,4.90
2023-03-15T04:59:42.810Z,5.17
2023-03-15T05:02:12.190Z,4.87
2023-03-15T05:05:04.959Z,4.93
2023-03-15T05:07:50.472Z,4.97
2023-03-15T05:10:33.110Z,4.63
2023-03-15T05:13:24.298Z,5.23
2023-03-15T05:16:11.602Z,4.63
2023-03-15T05:18:57.594Z,4.57
2023-03-15T05:21:44.587Z,4.57
2023-03-15T05:24:30.131Z,4.10
2023-03-15T05:27:29.357Z,6.60
2023-03-15T05:30:11.579Z,5.70
2023-03-15T05:33:04.741Z,4.60
2023-03-15T05:35:40.232Z,4.83
2023-03-15T05:38:26.935Z,4.00
2023-03-15T05:41:26.056Z,4.10
2023-03-15T05:44:06.934Z,4.30
2023-03-15T05:47:02.650Z,3.87
2023-03-15T05:49:39.375Z,5.00
2023-03-15T05:52:21.653Z,4.37
2023-03-15T05:54:56.328Z,3.97
2023-03-15T05:57:34.720Z,4.90
2023-03-15T06:00:16.323Z,4.63
2023-03-15T06:02:55.244Z,5.20
2023-03-15T06:05:35.084Z,5.00
2023-03-15T06:08:05.400Z,4.57
2023-03-15T06:10:33.919Z,4.80
2023-03-15T06:13:06.064Z,4.80
2023-03-15T06:15:32.943Z,4.63
2023-03-15T06:18:00.469Z,5.80
2023-03-15T06:20:27.285Z,5.00
2023-03-15T06:22:55.185Z,4.97
2023-03-15T06:25:30.705Z,4.97
2023-03-15T06:27:57.981Z,4.90
2023-03-15T06:30:26.178Z,5.03
2023-03-15T06:32:56.384Z,4.33
2023-03-15T06:35:23.025Z,4.63
2023-03-15T06:37:49.899Z,5.10
2023-03-15T06:40:16.529Z,5.33
2023-03-15T06:42:44.431Z,4.53
2023-03-15T06:45:13.187Z,4.80
2023-03-15T06:47:39.793Z,5.47
2023-03-15T06:50:07.010Z,5.10
2023-03-15T06:52:33.804Z,3.73
2023-03-15T06:55:00.540Z,4.20
2023-03-15T06:57:28.045Z,3.20
2023-03-15T06:59:54.620Z,3.83
2023-03-15T07:02:21.291Z,3.93
2023-03-15T07:04:48.141Z,4.07
2023-03-15T07:07:15.428Z,3.97
2023-03-15T07:09:42.210Z,3.23
2023-03-15T07:12:10.118Z,3.37
2023-03-15T07:14:36.838Z,3.80
2023-03-15T07:17:04.561Z,3.20
2023-03-15T07:19:31.202Z,3.50
2023-03-15T07:21:57.766Z,3.07
2023-03-15T07:24:24.376Z,3.10
2023-03-15T07:26:56.226Z,3.50
2023-03-15T07:29:24.099Z,3.60
2023-03-15T07:31:51.321Z,3.23
2023-03-15T07:34:18.111Z,3.23
2023-03-15T07:36:44.692Z,3.00
2023-03-15T07:39:11.773Z,3.50
2023-03-15T07:41:38.418Z,2.83
2023-03-15T07:44:15.526Z,2.90
2023-03-15T07:46:42.110Z,3.77
2023-03-15T07:49:08.674Z,4.10
2023-03-15T07:51:35.347Z,5.13
2023-03-15T07:54:01.936Z,3.57
2023-03-15T07:56:28.554Z,3.50
2023-03-15T07:58:55.167Z,3.33
2023-03-15T08:01:21.743Z,3.60
2023-03-15T08:03:48.359Z,3.30
2023-03-15T08:06:15.000Z,3.23
2023-03-15T08:08:41.592Z,3.03
2023-03-15T08:11:08.177Z,3.30
2023-03-15T08:13:34.931Z,2.87
2023-03-15T08:16:01.793Z,2.90
2023-03-15T08:18:31.439Z,3.10
2023-03-15T08:20:59.172Z,3.80
2023-03-15T08:23:26.315Z,3.43
2023-03-15T08:25:52.911Z,3.73
2023-03-15T08:28:19.514Z,3.40
2023-03-15T08:30:46.399Z,2.80
2023-03-15T08:33:12.983Z,3.30
2023-03-15T08:35:41.347Z,3.40
2023-03-15T08:38:09.447Z,3.20
2023-03-15T08:40:37.725Z,3.00
2023-03-15T08:43:04.881Z,2.60
2023-03-15T08:45:33.006Z,2.90
2023-03-15T08:48:00.855Z,3.13
2023-03-15T08:50:28.316Z,2.90
2023-03-15T08:52:55.373Z,3.20
2023-03-15T08:55:21.960Z,3.27
2023-03-15T08:57:48.689Z,3.47
2023-03-15T09:00:20.268Z,3.90
2023-03-15T09:02:55.212Z,3.20
2023-03-15T09:05:23.795Z,3.40
2023-03-15T09:07:53.127Z,3.20
2023-03-15T09:10:20.481Z,4.10
2023-03-15T09:12:49.734Z,4.30
2023-03-15T09:15:16.934Z,5.07
2023-03-15T09:17:43.635Z,3.33
2023-03-15T09:20:16.922Z,3.37
2023-03-15T09:22:49.388Z,3.10
2023-03-15T09:25:16.063Z,3.30
2023-03-15T09:27:42.636Z,3.43
2023-03-15T09:30:09.960Z,3.30
2023-03-15T09:32:36.784Z,3.13
2023-03-15T09:35:05.069Z,3.30
2023-03-15T09:37:32.029Z,3.30
2023-03-15T09:39:58.764Z,3.00
2023-03-15T09:42:34.419Z,3.33
2023-03-15T09:45:19.855Z,2.97
2023-03-15T09:48:12.750Z,2.47
2023-03-15T09:50:45.565Z,2.53
2023-03-15T09:53:31.984Z,2.40
2023-03-15T09:55:58.717Z,4.10
2023-03-15T09:58:32.513Z,8.17
2023-03-15T10:01:13.922Z,3.20
2023-03-15T10:03:51.905Z,3.03
2023-03-15T10:06:27.770Z,5.87
2023-03-15T10:09:00.204Z,4.03
2023-03-15T10:11:35.396Z,1.93
2023-03-15T10:14:22.723Z,4.47
2023-03-15T10:16:52.013Z,3.90
2023-03-15T10:19:37.191Z,2.50
2023-03-15T10:22:18.897Z,3.90
2023-03-15T10:24:48.614Z,6.30
2023-03-15T10:27:41.526Z,2.50
2023-03-15T10:30:21.561Z,2.30
2023-03-15T10:32:54.734Z,2.60
2023-03-15T10:35:21.660Z,2.63
2023-03-15T10:37:48.309Z,2.47
2023-03-15T10:40:18.517Z,2.30
2023-03-15T10:42:47.003Z,2.40
2023-03-15T10:45:25.482Z,2.53
2023-03-15T10:48:00.390Z,2.77
2023-03-15T10:50:32.213Z,2.50
2023-03-15T10:53:01.981Z,2.63
2023-03-15T10:55:38.110Z,3.10
2023-03-15T10:58:27.772Z,3.40
2023-03-15T11:01:00.095Z,3.10
2023-03-15T11:03:27.229Z,4.00
2023-03-15T11:06:00.614Z,3.50
2023-03-15T11:08:41.895Z,2.80
2023-03-15T11:11:09.659Z,2.77
2023-03-15T11:13:41.916Z,3.40
2023-03-15T11:16:15.113Z,2.93
2023-03-15T11:18:53.600Z,2.30
2023-03-15T11:21:23.854Z,2.10
2023-03-15T11:23:52.119Z,2.30
2023-03-15T11:26:32.973Z,1.83
2023-03-15T11:29:22.837Z,2.30
2023-03-15T11:31:51.307Z,2.70
2023-03-15T11:34:36.256Z,2.80
2023-03-15T11:37:12.119Z,2.07
2023-03-15T11:39:46.308Z,2.97
2023-03-15T11:42:38.120Z,4.73
2023-03-15T11:45:20.525Z,2.30
2023-03-15T11:47:52.976Z,5.27
2023-03-15T11:50:19.756Z,2.83
2023-03-15T11:52:51.800Z,4.60
2023-03-15T11:55:25.791Z,2.50
2023-03-15T11:57:53.438Z,3.60
2023-03-15T12:00:28.891Z,2.20
2023-03-15T12:03:00.351Z,3.50
2023-03-15T12:05:51.028Z,4.80
2023-03-15T12:08:27.665Z,3.90
2023-03-15T12:10:54.304Z,4.83
2023-03-15T12:13:27.243Z,2.70
2023-03-15T12:15:55.046Z,5.00
2023-03-15T12:18:26.570Z,9.10
2023-03-15T12:21:11.982Z,8.57
2023-03-15T12:23:43.281Z,5.27
2023-03-15T12:26:22.939Z,7.63
2023-03-15T12:29:06.544Z,2.90
2023-03-15T12:31:52.687Z,2.83
2023-03-15T12:34:29.857Z,2.50
2023-03-15T12:37:03.781Z,2.77
2023-03-15T12:39:40.222Z,2.70
2023-03-15T12:42:11.849Z,2.37
2023-03-15T12:44:41.939Z,2.30
2023-03-15T12:47:12.581Z,2.40
2023-03-15T12:49:44.340Z,2.00
2023-03-15T12:52:10.885Z,1.50
2023-03-15T12:54:47.245Z,1.57
2023-03-15T12:57:23.232Z,2.10
2023-03-15T13:00:00.452Z,2.43
2023-03-15T13:02:43.455Z,3.00
2023-03-15T13:05:22.326Z,2.80
2023-03-15T13:07:55.986Z,3.30
2023-03-15T13:11:00.871Z,3.07
2023-03-15T13:13:37.129Z,3.47
2023-03-15T13:16:43.654Z,3.20
2023-03-15T13:19:26.493Z,3.40
2023-03-15T13:22:28.196Z,3.40
2023-03-15T13:25:08.458Z,2.60
2023-03-15T13:27:43.761Z,2.70
2023-03-15T13:30:29.065Z,2.00
2023-03-15T13:33:31.741Z,2.40
2023-03-15T13:36:05.855Z,2.20
2023-03-15T13:38:44.362Z,1.77
2023-03-15T13:41:19.160Z,1.60
2023-03-15T13:43:46.465Z,1.90
2023-03-15T13:46:13.166Z,2.20
2023-03-15T13:48:45.115Z,2.40
2023-03-15T13:51:25.841Z,2.60
2023-03-15T13:53:56.158Z,3.07
2023-03-15T13:56:43.582Z,2.83
2023-03-15T13:59:15.805Z,1.50
2023-03-15T14:01:43.007Z,1.90
2023-03-15T14:04:18.630Z,1.30
2023-03-15T14:06:45.808Z,1.83
2023-03-15T14:09:28.745Z,1.80
2023-03-15T14:12:18.493Z,1.70
2023-03-15T14:14:53.811Z,2.10
2023-03-15T14:17:29.443Z,2.00
2023-03-15T14:20:07.445Z,2.10
2023-03-15T14:22:41.103Z,1.80
2023-03-15T14:25:21.524Z,1.50
2023-03-15T14:27:48.263Z,1.43
2023-03-15T14:30:23.668Z,1.77
2023-03-15T14:33:00.041Z,1.60
2023-03-15T14:35:32.745Z,1.40
2023-03-15T14:38:06.649Z,1.60
2023-03-15T14:40:36.241Z,1.30
2023-03-15T14:43:04.886Z,1.37
2023-03-15T14:45:33.500Z,1.30
2023-03-15T14:48:08.394Z,1.53
2023-03-15T14:50:40.786Z,1.80
2023-03-15T14:53:09.287Z,1.70
2023-03-15T14:55:37.575Z,1.67
2023-03-15T14:58:13.145Z,2.30
2023-03-15T15:00:40.137Z,1.80
2023-03-15T15:03:17.378Z,1.73
2023-03-15T15:05:44.493Z,1.67
2023-03-15T15:08:13.374Z,1.80
2023-03-15T15:10:42.086Z,1.53
2023-03-15T15:13:18.143Z,1.40
2023-03-15T15:15:55.218Z,1.30
2023-03-15T15:18:24.739Z,1.60
2023-03-15T15:20:54.384Z,0.93
2023-03-15T15:23:32.927Z,1.23
2023-03-15T15:26:03.309Z,1.23
2023-03-15T15:28:36.980Z,1.10
2023-03-15T15:31:06.966Z,1.63
2023-03-15T15:33:34.149Z,1.50
2023-03-15T15:36:01.915Z,1.13
2023-03-15T15:38:38.523Z,1.10
2023-03-15T15:41:11.163Z,1.40
2023-03-15T15:43:37.752Z,2.33
2023-03-15T15:46:04.482Z,1.57
2023-03-15T15:48:31.203Z,2.03
2023-03-15T15:50:58.019Z,2.00
2023-03-15T15:53:32.735Z,1.30
2023-03-15T15:55:59.434Z,1.40
2023-03-15T15:58:26.062Z,1.53
2023-03-15T16:00:52.663Z,1.10
2023-03-15T16:03:20.163Z,1.00
2023-03-15T16:05:46.789Z,1.20
2023-03-15T16:08:21.359Z,1.37
2023-03-15T16:10:48.044Z,1.40
2023-03-15T16:13:14.926Z,1.30
2023-03-15T16:15:41.621Z,1.10
2023-03-15T16:18:12.256Z,1.20
2023-03-15T16:20:40.719Z,1.30
2023-03-15T16:23:09.990Z,1.13
2023-03-15T16:25:36.959Z,1.40
2023-03-15T16:28:04.451Z,1.10
2023-03-15T16:30:33.113Z,1.00
2023-03-15T16:32:59.715Z,1.10
2023-03-15T16:35:31.375Z,1.50
2023-03-15T16:37:59.102Z,1.37
2023-03-15T16:40:34.651Z,1.53
2023-03-15T16:43:01.636Z,1.63
2023-03-15T16:45:28.877Z,1.50
2023-03-15T16:47:56.481Z,1.50
2023-03-15T16:50:23.452Z,2.40
2023-03-15T16:52:53.082Z,1.90
2023-03-15T16:55:27.886Z,1.30
2023-03-15T16:57:54.939Z,1.30
2023-03-15T17:00:22.275Z,1.30
2023-03-15T17:03:01.646Z,1.63
2023-03-15T17:05:28.430Z,1.27
2023-03-15T17:07:55.469Z,1.30
2023-03-15T17:10:25.035Z,1.30
2023-03-15T17:12:52.531Z,1.27
2023-03-15T17:15:21.780Z,1.10
2023-03-15T17:17:48.628Z,1.20
2023-03-15T17:20:21.530Z,1.10
2023-03-15T17:22:49.767Z,0.90
2023-03-15T17:25:17.381Z,0.90
2023-03-15T17:27:46.002Z,1.00
2023-03-15T17:30:22.165Z,1.07
2023-03-15T17:32:48.867Z,1.00
2023-03-15T17:35:18.982Z,1.00
2023-03-15T17:37:46.749Z,1.40
2023-03-15T17:40:24.417Z,1.00
2023-03-15T17:42:52.221Z,1.20
2023-03-15T17:45:21.832Z,1.10
2023-03-15T17:47:52.383Z,1.00
2023-03-15T17:50:19.541Z,1.30
2023-03-15T17:52:51.184Z,1.30
2023-03-15T17:55:21.303Z,1.30
2023-03-15T17:57:54.663Z,1.40
2023-03-15T18:00:23.601Z,1.03
2023-03-15T18:02:56.373Z,1.30
2023-03-15T18:05:26.705Z,1.40
2023-03-15T18:07:58.991Z,1.30
2023-03-15T18:10:31.332Z,1.10
2023-03-15T18:12:57.903Z,1.20
2023-03-15T18:15:24.593Z,1.50
2023-03-15T18:17:51.233Z,1.80
2023-03-15T18:20:18.797Z,1.60
2023-03-15T18:22:45.556Z,1.60
2023-03-15T18:25:22.900Z,1.40
2023-03-15T18:27:49.914Z,2.00
2023-03-15T18:30:20.247Z,2.57
2023-03-15T18:32:47.092Z,2.40
2023-03-15T18:35:19.107Z,2.53
2023-03-15T18:37:46.786Z,1.73
2023-03-15T18:40:15.904Z,2.27
2023-03-15T18:42:43.699Z,2.10
2023-03-15T18:45:31.004Z,2.50
2023-03-15T18:47:59.880Z,1.30
2023-03-15T18:50:28.003Z,1.67
2023-03-15T18:52:54.810Z,1.53
2023-03-15T18:55:23.321Z,1.20
2023-03-15T18:57:52.150Z,1.40
2023-03-15T19:00:28.334Z,1.30
2023-03-15T19:03:06.270Z,1.67
2023-03-15T19:05:35.607Z,1.67
2023-03-15T19:08:02.442Z,1.70
2023-03-15T19:10:28.998Z,1.47
2023-03-15T19:12:55.798Z,1.37
2023-03-15T19:15:23.103Z,1.50
2023-03-15T19:17:52.092Z,1.50
2023-03-15T19:20:21.622Z,1.70
2023-03-15T19:22:49.176Z,1.90
2023-03-15T19:25:15.861Z,1.70
2023-03-15T19:27:43.263Z,1.77
2023-03-15T19:30:14.357Z,1.73
2023-03-15T19:32:42.757Z,1.83
2023-03-15T19:35:09.642Z,1.63
2023-03-15T19:37:36.207Z,1.60
2023-03-15T19:40:03.819Z,1.70
2023-03-15T19:42:30.949Z,1.83
2023-03-15T19:44:57.546Z,1.60
2023-03-15T19:47:24.150Z,1.47
2023-03-15T19:49:50.803Z,2.20
2023-03-15T19:52:17.403Z,3.23
2023-03-15T19:54:44.009Z,2.13
2023-03-15T19:57:11.024Z,2.13
2023-03-15T19:59:39.983Z,2.30
2023-03-15T20:02:13.570Z,3.90
2023-03-15T20:04:40.749Z,3.70
2023-03-15T20:07:10.997Z,2.70
2023-03-15T20:09:38.988Z,2.83
2023-03-15T20:12:07.548Z,2.73
2023-03-15T20:14:34.889Z,2.60
2023-03-15T20:17:02.262Z,2.20
2023-03-15T20:19:29.295Z,2.00
2023-03-15T20:21:56.330Z,1.83
2023-03-15T20:24:22.990Z,2.33
2023-03-15T20:26:53.018Z,2.37
2023-03-15T20:29:19.948Z,2.33
2023-03-15T20:31:46.638Z,2.33
2023-03-15T20:34:13.348Z,2.70
2023-03-15T20:36:39.940Z,3.93
2023-03-15T20:39:06.526Z,2.50
2023-03-15T20:41:33.447Z,3.00
2023-03-15T20:44:00.361Z,3.50
2023-03-15T20:46:27.392Z,3.47
2023-03-15T20:48:54.005Z,3.10
2023-03-15T20:51:21.134Z,2.80
2023-03-15T20:53:48.178Z,2.43
2023-03-15T20:56:15.129Z,2.03
2023-03-15T20:58:41.960Z,2.27
2023-03-15T21:01:11.376Z,2.10
2023-03-15T21:03:38.050Z,2.27
2023-03-15T21:06:06.009Z,2.20
2023-03-15T21:08:34.593Z,2.07
2023-03-15T21:11:02.954Z,2.20
2023-03-15T21:13:29.757Z,2.13
2023-03-15T21:15:56.464Z,2.47
2023-03-15T21:18:24.795Z,2.97
2023-03-15T21:21:05.778Z,2.73
2023-03-15T21:23:33.347Z,2.40
2023-03-15T21:26:08.205Z,2.43
2023-03-15T21:28:35.335Z,2.20
2023-03-15T21:31:02.176Z,1.90
2023-03-15T21:33:30.199Z,2.47
2023-03-15T21:35:59.185Z,2.63
2023-03-15T21:38:27.730Z,1.93
2023-03-15T21:40:59.537Z,2.00
2023-03-15T21:43:28.255Z,2.10
2023-03-15T21:45:55.046Z,1.90
2023-03-15T21:48:21.773Z,1.90
2023-03-15T21:50:49.553Z,1.90
2023-03-15T21:53:16.161Z,1.90
2023-03-15T21:55:46.156Z,1.80
2023-03-15T21:58:13.071Z,1.90
2023-03-15T22:00:40.032Z,1.90
2023-03-15T22:03:13.565Z,1.63
2023-03-15T22:05:40.186Z,1.53
2023-03-15T22:08:06.973Z,1.80
2023-03-15T22:10:33.651Z,1.70
2023-03-15T22:13:00.290Z,1.70
2023-03-15T22:15:26.864Z,1.70
2023-03-15T22:17:53.420Z,1.37
2023-03-15T22:20:20.302Z,1.70
2023-03-15T22:22:49.087Z,1.30
2023-03-15T22:25:16.776Z,1.47
2023-03-15T22:27:44.689Z,1.80
2023-03-15T22:30:17.741Z,2.13
2023-03-15T22:32:44.884Z,1.70
2023-03-15T22:35:13.218Z,1.80
2023-03-15T22:37:39.880Z,1.63
2023-03-15T22:40:07.662Z,1.70
2023-03-15T22:42:34.263Z,1.70
2023-03-15T22:45:01.027Z,1.90
2023-03-15T22:47:27.755Z,1.80
2023-03-15T22:49:55.457Z,1.70
2023-03-15T22:52:22.039Z,1.83
2023-03-15T22:54:48.596Z,2.10
2023-03-15T22:57:15.177Z,2.23
2023-03-15T22:59:41.777Z,1.77
2023-03-15T23:02:13.373Z,1.90
2023-03-15T23:04:40.097Z,2.00
2023-03-15T23:07:07.088Z,1.70
2023-03-15T23:09:33.691Z,1.80
2023-03-15T23:12:00.271Z,2.30
2023-03-15T23:14:26.899Z,2.10
2023-03-15T23:16:53.900Z,2.00
2023-03-15T23:19:22.391Z,2.00
2023-03-15T23:21:48.982Z,1.87
2023-03-15T23:24:18.967Z,2.03
2023-03-15T23:26:45.752Z,2.30
2023-03-15T23:29:12.404Z,2.13
2023-03-15T23:31:40.116Z,1.83
2023-03-15T23:34:08.236Z,1.90
2023-03-15T23:36:35.591Z,1.90
2023-03-15T23:39:02.366Z,1.93
2023-03-15T23:41:29.192Z,2.03
2023-03-15T23:43:55.941Z,2.30
2023-03-15T23:46:25.743Z,1.97
2023-03-15T23:48:53.237Z,2.03
2023-03-15T23:51:20.332Z,1.90
2023-03-15T23:53:47.016Z,2.20
2023-03-15T23:56:13.992Z,2.03
2023-03-15T23:58:41.173Z,2.13
